sensor_id;sensor_type;location;lat;lon;timestamp;P1;durP1;ratioP1;P2;durP2;ratioP2
52126;SDS011;38120;53.176;6.614;2023-08-06T00:00:19;9.43;;;6.00;;
52126;SDS011;38120;53.176;6.614;2023-08-06T00:05:11;10.18;;;6.80;;
52126;SDS011;38120;53.176;6.614;2023-08-06T00:07:37;14.38;;;7.50;;
52126;SDS011;38120;53.176;6.614;2023-08-06T00:10:03;11.02;;;7.50;;
52126;SDS011;38120;53.176;6.614;2023-08-06T00:12:29;9.60;;;6.82;;
52126;SDS011;38120;53.176;6.614;2023-08-06T00:14:55;11.20;;;6.17;;
52126;SDS011;38120;53.176;6.614;2023-08-06T00:17:20;10.02;;;6.68;;
52126;SDS011;38120;53.176;6.614;2023-08-06T00:19:46;10.13;;;6.47;;
52126;SDS011;38120;53.176;6.614;2023-08-06T00:22:12;11.90;;;6.80;;
52126;SDS011;38120;53.176;6.614;2023-08-06T00:24:37;13.38;;;7.20;;
52126;SDS011;38120;53.176;6.614;2023-08-06T00:27:03;11.32;;;5.90;;
52126;SDS011;38120;53.176;6.614;2023-08-06T00:29:29;10.77;;;7.13;;
52126;SDS011;38120;53.176;6.614;2023-08-06T00:31:55;10.88;;;7.47;;
52126;SDS011;38120;53.176;6.614;2023-08-06T00:34:20;12.40;;;6.40;;
52126;SDS011;38120;53.176;6.614;2023-08-06T00:36:46;14.10;;;7.55;;
52126;SDS011;38120;53.176;6.614;2023-08-06T00:39:11;12.43;;;7.03;;
52126;SDS011;38120;53.176;6.614;2023-08-06T00:41:37;12.15;;;6.68;;
52126;SDS011;38120;53.176;6.614;2023-08-06T00:44:03;11.40;;;7.25;;
52126;SDS011;38120;53.176;6.614;2023-08-06T00:46:29;11.02;;;6.97;;
52126;SDS011;38120;53.176;6.614;2023-08-06T00:48:55;9.57;;;6.43;;
52126;SDS011;38120;53.176;6.614;2023-08-06T00:51:21;10.48;;;7.30;;
52126;SDS011;38120;53.176;6.614;2023-08-06T00:53:48;11.50;;;7.47;;
52126;SDS011;38120;53.176;6.614;2023-08-06T00:56:15;10.80;;;7.30;;
52126;SDS011;38120;53.176;6.614;2023-08-06T00:58:41;14.10;;;9.73;;
52126;SDS011;38120;53.176;6.614;2023-08-06T01:01:07;12.68;;;7.93;;
52126;SDS011;38120;53.176;6.614;2023-08-06T01:03:33;15.40;;;8.57;;
52126;SDS011;38120;53.176;6.614;2023-08-06T01:05:58;12.13;;;8.30;;
52126;SDS011;38120;53.176;6.614;2023-08-06T01:15:59;13.25;;;8.77;;
52126;SDS011;38120;53.176;6.614;2023-08-06T01:18:26;16.00;;;10.15;;
52126;SDS011;38120;53.176;6.614;2023-08-06T01:20:52;14.13;;;9.45;;
52126;SDS011;38120;53.176;6.614;2023-08-06T01:23:18;14.73;;;9.97;;
52126;SDS011;38120;53.176;6.614;2023-08-06T01:28:23;15.20;;;9.98;;
52126;SDS011;38120;53.176;6.614;2023-08-06T01:30:58;13.43;;;9.35;;
52126;SDS011;38120;53.176;6.614;2023-08-06T01:33:27;15.57;;;9.20;;
52126;SDS011;38120;53.176;6.614;2023-08-06T01:35:55;12.45;;;8.93;;
52126;SDS011;38120;53.176;6.614;2023-08-06T01:38:22;16.27;;;9.57;;
52126;SDS011;38120;53.176;6.614;2023-08-06T01:43:14;13.48;;;9.52;;
52126;SDS011;38120;53.176;6.614;2023-08-06T01:45:40;12.80;;;7.93;;
52126;SDS011;38120;53.176;6.614;2023-08-06T01:48:05;14.30;;;9.83;;
52126;SDS011;38120;53.176;6.614;2023-08-06T01:50:31;15.32;;;10.82;;
52126;SDS011;38120;53.176;6.614;2023-08-06T01:52:56;13.38;;;8.85;;
52126;SDS011;38120;53.176;6.614;2023-08-06T01:55:22;17.43;;;9.90;;
52126;SDS011;38120;53.176;6.614;2023-08-06T01:57:48;12.93;;;9.13;;
52126;SDS011;38120;53.176;6.614;2023-08-06T02:00:13;16.02;;;9.32;;
52126;SDS011;38120;53.176;6.614;2023-08-06T02:02:39;12.68;;;9.48;;
52126;SDS011;38120;53.176;6.614;2023-08-06T02:07:31;19.58;;;11.48;;
52126;SDS011;38120;53.176;6.614;2023-08-06T02:09:57;17.98;;;12.32;;
52126;SDS011;38120;53.176;6.614;2023-08-06T02:12:23;18.08;;;11.73;;
52126;SDS011;38120;53.176;6.614;2023-08-06T02:14:48;18.20;;;13.43;;
52126;SDS011;38120;53.176;6.614;2023-08-06T02:17:14;18.43;;;11.93;;
52126;SDS011;38120;53.176;6.614;2023-08-06T02:19:40;16.30;;;12.37;;
52126;SDS011;38120;53.176;6.614;2023-08-06T02:22:05;15.27;;;11.60;;
52126;SDS011;38120;53.176;6.614;2023-08-06T02:24:31;14.93;;;11.50;;
52126;SDS011;38120;53.176;6.614;2023-08-06T02:26:57;20.50;;;13.15;;
52126;SDS011;38120;53.176;6.614;2023-08-06T02:29:22;22.60;;;12.98;;
52126;SDS011;38120;53.176;6.614;2023-08-06T02:31:48;15.47;;;11.97;;
52126;SDS011;38120;53.176;6.614;2023-08-06T02:34:13;16.87;;;12.07;;
52126;SDS011;38120;53.176;6.614;2023-08-06T02:36:39;19.97;;;11.63;;
52126;SDS011;38120;53.176;6.614;2023-08-06T02:39:05;17.80;;;12.20;;
52126;SDS011;38120;53.176;6.614;2023-08-06T02:41:30;18.77;;;12.98;;
52126;SDS011;38120;53.176;6.614;2023-08-06T02:43:56;18.45;;;13.10;;
52126;SDS011;38120;53.176;6.614;2023-08-06T02:46:22;20.23;;;12.45;;
52126;SDS011;38120;53.176;6.614;2023-08-06T02:48:48;18.70;;;12.70;;
52126;SDS011;38120;53.176;6.614;2023-08-06T02:51:13;17.30;;;12.47;;
52126;SDS011;38120;53.176;6.614;2023-08-06T02:53:39;18.27;;;12.33;;
52126;SDS011;38120;53.176;6.614;2023-08-06T02:56:05;17.20;;;12.45;;
52126;SDS011;38120;53.176;6.614;2023-08-06T02:58:30;17.80;;;12.70;;
52126;SDS011;38120;53.176;6.614;2023-08-06T03:01:02;17.37;;;12.13;;
52126;SDS011;38120;53.176;6.614;2023-08-06T03:03:33;23.83;;;11.77;;
52126;SDS011;38120;53.176;6.614;2023-08-06T03:05:59;18.77;;;12.07;;
52126;SDS011;38120;53.176;6.614;2023-08-06T03:08:25;18.67;;;12.23;;
52126;SDS011;38120;53.176;6.614;2023-08-06T03:10:51;19.05;;;13.73;;
52126;SDS011;38120;53.176;6.614;2023-08-06T03:13:17;20.27;;;12.93;;
52126;SDS011;38120;53.176;6.614;2023-08-06T03:15:43;18.02;;;12.15;;
52126;SDS011;38120;53.176;6.614;2023-08-06T03:18:19;15.45;;;10.80;;
52126;SDS011;38120;53.176;6.614;2023-08-06T03:20:45;18.55;;;10.95;;
52126;SDS011;38120;53.176;6.614;2023-08-06T03:23:11;16.15;;;11.38;;
52126;SDS011;38120;53.176;6.614;2023-08-06T03:25:36;17.87;;;10.93;;
52126;SDS011;38120;53.176;6.614;2023-08-06T03:28:02;14.37;;;10.70;;
52126;SDS011;38120;53.176;6.614;2023-08-06T03:30:28;15.63;;;10.55;;
52126;SDS011;38120;53.176;6.614;2023-08-06T03:32:53;14.25;;;10.80;;
52126;SDS011;38120;53.176;6.614;2023-08-06T03:35:19;14.47;;;11.10;;
52126;SDS011;38120;53.176;6.614;2023-08-06T03:37:45;16.73;;;10.07;;
52126;SDS011;38120;53.176;6.614;2023-08-06T03:40:11;14.75;;;9.65;;
52126;SDS011;38120;53.176;6.614;2023-08-06T03:42:37;14.00;;;9.70;;
52126;SDS011;38120;53.176;6.614;2023-08-06T03:45:03;14.48;;;10.07;;
52126;SDS011;38120;53.176;6.614;2023-08-06T03:47:29;13.95;;;9.20;;
52126;SDS011;38120;53.176;6.614;2023-08-06T03:49:54;13.73;;;9.83;;
52126;SDS011;38120;53.176;6.614;2023-08-06T03:52:20;12.67;;;8.80;;
52126;SDS011;38120;53.176;6.614;2023-08-06T03:54:45;13.25;;;9.02;;
52126;SDS011;38120;53.176;6.614;2023-08-06T03:57:11;13.98;;;9.98;;
52126;SDS011;38120;53.176;6.614;2023-08-06T03:59:37;12.25;;;8.75;;
52126;SDS011;38120;53.176;6.614;2023-08-06T04:02:03;12.93;;;9.30;;
52126;SDS011;38120;53.176;6.614;2023-08-06T04:04:28;13.60;;;9.43;;
52126;SDS011;38120;53.176;6.614;2023-08-06T04:06:54;11.35;;;7.82;;
52126;SDS011;38120;53.176;6.614;2023-08-06T04:09:19;12.73;;;9.30;;
52126;SDS011;38120;53.176;6.614;2023-08-06T04:11:45;14.45;;;8.73;;
52126;SDS011;38120;53.176;6.614;2023-08-06T04:14:11;13.88;;;8.27;;
52126;SDS011;38120;53.176;6.614;2023-08-06T04:16:37;14.15;;;8.45;;
52126;SDS011;38120;53.176;6.614;2023-08-06T04:19:02;12.73;;;8.50;;
52126;SDS011;38120;53.176;6.614;2023-08-06T04:21:28;15.88;;;8.45;;
52126;SDS011;38120;53.176;6.614;2023-08-06T04:23:54;13.82;;;8.80;;
52126;SDS011;38120;53.176;6.614;2023-08-06T04:26:19;25.80;;;8.75;;
52126;SDS011;38120;53.176;6.614;2023-08-06T04:28:45;11.57;;;8.53;;
52126;SDS011;38120;53.176;6.614;2023-08-06T04:31:11;13.07;;;9.30;;
52126;SDS011;38120;53.176;6.614;2023-08-06T04:33:37;11.73;;;8.20;;
52126;SDS011;38120;53.176;6.614;2023-08-06T04:36:03;13.00;;;8.07;;
52126;SDS011;38120;53.176;6.614;2023-08-06T04:38:28;11.60;;;7.88;;
52126;SDS011;38120;53.176;6.614;2023-08-06T04:40:54;11.32;;;7.65;;
52126;SDS011;38120;53.176;6.614;2023-08-06T04:43:20;12.43;;;8.37;;
52126;SDS011;38120;53.176;6.614;2023-08-06T04:45:49;14.32;;;8.90;;
52126;SDS011;38120;53.176;6.614;2023-08-06T04:48:16;15.27;;;8.98;;
52126;SDS011;38120;53.176;6.614;2023-08-06T04:50:45;12.55;;;8.45;;
52126;SDS011;38120;53.176;6.614;2023-08-06T04:53:11;12.30;;;8.43;;
52126;SDS011;38120;53.176;6.614;2023-08-06T04:55:37;12.50;;;8.48;;
52126;SDS011;38120;53.176;6.614;2023-08-06T04:58:03;12.85;;;8.43;;
52126;SDS011;38120;53.176;6.614;2023-08-06T05:00:28;11.27;;;7.53;;
52126;SDS011;38120;53.176;6.614;2023-08-06T05:02:54;12.27;;;8.18;;
52126;SDS011;38120;53.176;6.614;2023-08-06T05:05:20;11.15;;;7.85;;
52126;SDS011;38120;53.176;6.614;2023-08-06T05:07:49;16.33;;;9.10;;
52126;SDS011;38120;53.176;6.614;2023-08-06T05:10:15;11.15;;;7.28;;
52126;SDS011;38120;53.176;6.614;2023-08-06T05:12:41;13.80;;;8.43;;
52126;SDS011;38120;53.176;6.614;2023-08-06T05:15:07;11.57;;;8.07;;
52126;SDS011;38120;53.176;6.614;2023-08-06T05:17:33;10.63;;;7.40;;
52126;SDS011;38120;53.176;6.614;2023-08-06T05:19:59;13.73;;;8.88;;
52126;SDS011;38120;53.176;6.614;2023-08-06T05:22:25;13.00;;;7.68;;
52126;SDS011;38120;53.176;6.614;2023-08-06T05:24:50;12.63;;;9.13;;
52126;SDS011;38120;53.176;6.614;2023-08-06T05:27:16;14.40;;;7.75;;
52126;SDS011;38120;53.176;6.614;2023-08-06T05:29:44;14.38;;;9.13;;
52126;SDS011;38120;53.176;6.614;2023-08-06T05:32:11;14.82;;;8.95;;
52126;SDS011;38120;53.176;6.614;2023-08-06T05:34:36;13.65;;;8.70;;
52126;SDS011;38120;53.176;6.614;2023-08-06T05:37:02;16.55;;;9.23;;
52126;SDS011;38120;53.176;6.614;2023-08-06T05:39:29;14.77;;;9.57;;
52126;SDS011;38120;53.176;6.614;2023-08-06T05:41:54;14.63;;;10.18;;
52126;SDS011;38120;53.176;6.614;2023-08-06T05:44:20;13.85;;;8.27;;
52126;SDS011;38120;53.176;6.614;2023-08-06T05:46:46;13.05;;;8.85;;
52126;SDS011;38120;53.176;6.614;2023-08-06T05:49:12;14.15;;;8.63;;
52126;SDS011;38120;53.176;6.614;2023-08-06T05:51:39;13.07;;;8.98;;
52126;SDS011;38120;53.176;6.614;2023-08-06T05:54:04;14.10;;;8.55;;
52126;SDS011;38120;53.176;6.614;2023-08-06T05:56:30;13.63;;;8.82;;
52126;SDS011;38120;53.176;6.614;2023-08-06T05:58:56;16.00;;;8.68;;
52126;SDS011;38120;53.176;6.614;2023-08-06T06:01:21;17.27;;;10.17;;
52126;SDS011;38120;53.176;6.614;2023-08-06T06:03:47;15.25;;;8.57;;
52126;SDS011;38120;53.176;6.614;2023-08-06T06:06:13;12.15;;;8.25;;
52126;SDS011;38120;53.176;6.614;2023-08-06T06:08:39;13.80;;;9.32;;
52126;SDS011;38120;53.176;6.614;2023-08-06T06:13:31;11.23;;;8.18;;
52126;SDS011;38120;53.176;6.614;2023-08-06T06:15:57;16.70;;;9.07;;
52126;SDS011;38120;53.176;6.614;2023-08-06T06:18:22;15.32;;;9.10;;
52126;SDS011;38120;53.176;6.614;2023-08-06T06:20:48;13.75;;;9.70;;
52126;SDS011;38120;53.176;6.614;2023-08-06T06:23:14;13.75;;;8.40;;
52126;SDS011;38120;53.176;6.614;2023-08-06T06:25:49;15.18;;;8.93;;
52126;SDS011;38120;53.176;6.614;2023-08-06T06:28:18;14.50;;;8.77;;
52126;SDS011;38120;53.176;6.614;2023-08-06T06:30:44;14.80;;;8.65;;
52126;SDS011;38120;53.176;6.614;2023-08-06T06:33:10;12.65;;;8.00;;
52126;SDS011;38120;53.176;6.614;2023-08-06T06:35:36;13.13;;;8.23;;
52126;SDS011;38120;53.176;6.614;2023-08-06T06:38:02;13.85;;;7.75;;
52126;SDS011;38120;53.176;6.614;2023-08-06T06:40:28;10.88;;;7.82;;
52126;SDS011;38120;53.176;6.614;2023-08-06T06:42:54;13.32;;;8.40;;
52126;SDS011;38120;53.176;6.614;2023-08-06T06:45:19;11.98;;;7.55;;
52126;SDS011;38120;53.176;6.614;2023-08-06T06:47:45;13.77;;;7.90;;
52126;SDS011;38120;53.176;6.614;2023-08-06T06:50:11;12.73;;;7.55;;
52126;SDS011;38120;53.176;6.614;2023-08-06T06:52:37;11.93;;;6.88;;
52126;SDS011;38120;53.176;6.614;2023-08-06T06:55:02;11.27;;;7.18;;
52126;SDS011;38120;53.176;6.614;2023-08-06T06:57:28;9.52;;;6.97;;
52126;SDS011;38120;53.176;6.614;2023-08-06T06:59:54;8.83;;;6.40;;
52126;SDS011;38120;53.176;6.614;2023-08-06T07:02:20;13.02;;;7.53;;
52126;SDS011;38120;53.176;6.614;2023-08-06T07:04:45;9.65;;;7.35;;
52126;SDS011;38120;53.176;6.614;2023-08-06T07:07:11;10.60;;;6.75;;
52126;SDS011;38120;53.176;6.614;2023-08-06T07:09:37;11.68;;;7.95;;
52126;SDS011;38120;53.176;6.614;2023-08-06T07:12:03;10.27;;;6.90;;
52126;SDS011;38120;53.176;6.614;2023-08-06T07:14:29;11.63;;;7.70;;
52126;SDS011;38120;53.176;6.614;2023-08-06T07:16:54;8.73;;;6.55;;
52126;SDS011;38120;53.176;6.614;2023-08-06T07:19:20;10.45;;;6.50;;
52126;SDS011;38120;53.176;6.614;2023-08-06T07:21:46;12.27;;;7.88;;
52126;SDS011;38120;53.176;6.614;2023-08-06T07:24:11;12.60;;;7.47;;
52126;SDS011;38120;53.176;6.614;2023-08-06T07:26:37;9.38;;;6.35;;
52126;SDS011;38120;53.176;6.614;2023-08-06T07:29:03;11.18;;;6.13;;
52126;SDS011;38120;53.176;6.614;2023-08-06T07:31:29;9.48;;;6.10;;
52126;SDS011;38120;53.176;6.614;2023-08-06T07:33:55;8.80;;;6.10;;
52126;SDS011;38120;53.176;6.614;2023-08-06T07:36:20;10.05;;;7.43;;
52126;SDS011;38120;53.176;6.614;2023-08-06T07:38:46;11.40;;;6.88;;
52126;SDS011;38120;53.176;6.614;2023-08-06T07:41:14;9.27;;;5.85;;
52126;SDS011;38120;53.176;6.614;2023-08-06T07:43:40;16.98;;;7.13;;
52126;SDS011;38120;53.176;6.614;2023-08-06T07:46:07;9.38;;;6.35;;
52126;SDS011;38120;53.176;6.614;2023-08-06T07:48:33;9.20;;;5.85;;
52126;SDS011;38120;53.176;6.614;2023-08-06T07:50:59;10.27;;;5.70;;
52126;SDS011;38120;53.176;6.614;2023-08-06T07:53:25;8.77;;;6.25;;
52126;SDS011;38120;53.176;6.614;2023-08-06T07:55:57;10.35;;;5.93;;
52126;SDS011;38120;53.176;6.614;2023-08-06T07:58:23;11.07;;;6.68;;
52126;SDS011;38120;53.176;6.614;2023-08-06T08:00:50;8.48;;;5.47;;
52126;SDS011;38120;53.176;6.614;2023-08-06T08:03:16;7.95;;;5.70;;
52126;SDS011;38120;53.176;6.614;2023-08-06T08:05:42;8.20;;;5.88;;
52126;SDS011;38120;53.176;6.614;2023-08-06T08:08:09;8.50;;;5.97;;
52126;SDS011;38120;53.176;6.614;2023-08-06T08:10:35;10.20;;;6.43;;
52126;SDS011;38120;53.176;6.614;2023-08-06T08:13:03;9.80;;;6.82;;
52126;SDS011;38120;53.176;6.614;2023-08-06T08:17:55;9.23;;;6.75;;
52126;SDS011;38120;53.176;6.614;2023-08-06T08:20:21;11.00;;;6.72;;
52126;SDS011;38120;53.176;6.614;2023-08-06T08:22:47;8.73;;;6.20;;
52126;SDS011;38120;53.176;6.614;2023-08-06T08:25:13;7.93;;;5.07;;
52126;SDS011;38120;53.176;6.614;2023-08-06T08:27:39;8.77;;;6.15;;
52126;SDS011;38120;53.176;6.614;2023-08-06T08:30:05;11.48;;;5.45;;
52126;SDS011;38120;53.176;6.614;2023-08-06T08:32:31;8.48;;;4.60;;
52126;SDS011;38120;53.176;6.614;2023-08-06T08:34:57;6.70;;;4.28;;
52126;SDS011;38120;53.176;6.614;2023-08-06T08:37:23;6.63;;;3.90;;
52126;SDS011;38120;53.176;6.614;2023-08-06T08:39:50;5.57;;;3.33;;
52126;SDS011;38120;53.176;6.614;2023-08-06T08:42:17;6.38;;;4.10;;
52126;SDS011;38120;53.176;6.614;2023-08-06T08:44:43;5.57;;;3.33;;
52126;SDS011;38120;53.176;6.614;2023-08-06T08:47:10;6.05;;;3.17;;
52126;SDS011;38120;53.176;6.614;2023-08-06T08:49:37;7.72;;;3.17;;
52126;SDS011;38120;53.176;6.614;2023-08-06T08:52:04;5.85;;;3.33;;
52126;SDS011;38120;53.176;6.614;2023-08-06T08:54:35;5.82;;;3.25;;
52126;SDS011;38120;53.176;6.614;2023-08-06T08:57:04;6.40;;;3.13;;
52126;SDS011;38120;53.176;6.614;2023-08-06T08:59:31;6.50;;;3.78;;
52126;SDS011;38120;53.176;6.614;2023-08-06T09:01:58;5.60;;;2.97;;
52126;SDS011;38120;53.176;6.614;2023-08-06T09:04:26;5.43;;;3.60;;
52126;SDS011;38120;53.176;6.614;2023-08-06T09:06:56;7.40;;;2.70;;
52126;SDS011;38120;53.176;6.614;2023-08-06T09:09:28;4.28;;;2.60;;
52126;SDS011;38120;53.176;6.614;2023-08-06T09:12:00;4.80;;;2.78;;
52126;SDS011;38120;53.176;6.614;2023-08-06T09:14:27;8.35;;;3.63;;
52126;SDS011;38120;53.176;6.614;2023-08-06T09:16:53;5.13;;;3.33;;
52126;SDS011;38120;53.176;6.614;2023-08-06T09:19:22;5.60;;;3.20;;
52126;SDS011;38120;53.176;6.614;2023-08-06T09:21:50;4.25;;;2.70;;
52126;SDS011;38120;53.176;6.614;2023-08-06T09:24:16;6.20;;;3.00;;
52126;SDS011;38120;53.176;6.614;2023-08-06T09:26:43;5.15;;;3.47;;
52126;SDS011;38120;53.176;6.614;2023-08-06T09:29:10;6.18;;;4.13;;
52126;SDS011;38120;53.176;6.614;2023-08-06T09:31:57;6.88;;;4.45;;
52126;SDS011;38120;53.176;6.614;2023-08-06T09:34:23;5.85;;;3.28;;
52126;SDS011;38120;53.176;6.614;2023-08-06T09:36:49;5.63;;;3.38;;
52126;SDS011;38120;53.176;6.614;2023-08-06T09:39:19;7.70;;;3.30;;
52126;SDS011;38120;53.176;6.614;2023-08-06T09:41:55;7.18;;;2.70;;
52126;SDS011;38120;53.176;6.614;2023-08-06T09:44:22;3.72;;;2.35;;
52126;SDS011;38120;53.176;6.614;2023-08-06T09:46:51;4.28;;;2.05;;
52126;SDS011;38120;53.176;6.614;2023-08-06T09:49:18;4.72;;;2.72;;
52126;SDS011;38120;53.176;6.614;2023-08-06T09:51:47;4.40;;;2.20;;
52126;SDS011;38120;53.176;6.614;2023-08-06T09:54:16;5.00;;;2.53;;
52126;SDS011;38120;53.176;6.614;2023-08-06T09:56:43;3.72;;;2.03;;
52126;SDS011;38120;53.176;6.614;2023-08-06T09:59:09;2.88;;;1.85;;
52126;SDS011;38120;53.176;6.614;2023-08-06T10:01:36;3.40;;;2.13;;
52126;SDS011;38120;53.176;6.614;2023-08-06T10:06:29;4.45;;;1.70;;
52126;SDS011;38120;53.176;6.614;2023-08-06T10:08:54;2.58;;;1.38;;
52126;SDS011;38120;53.176;6.614;2023-08-06T10:11:21;2.72;;;1.60;;
52126;SDS011;38120;53.176;6.614;2023-08-06T10:13:50;2.70;;;1.73;;
52126;SDS011;38120;53.176;6.614;2023-08-06T10:16:33;3.35;;;1.98;;
52126;SDS011;38120;53.176;6.614;2023-08-06T10:19:00;3.63;;;1.88;;
52126;SDS011;38120;53.176;6.614;2023-08-06T10:21:28;3.75;;;2.08;;
52126;SDS011;38120;53.176;6.614;2023-08-06T10:23:55;5.13;;;2.10;;
52126;SDS011;38120;53.176;6.614;2023-08-06T10:28:52;2.63;;;1.40;;
52126;SDS011;38120;53.176;6.614;2023-08-06T10:31:18;3.17;;;1.88;;
52126;SDS011;38120;53.176;6.614;2023-08-06T10:33:45;3.13;;;1.60;;
52126;SDS011;38120;53.176;6.614;2023-08-06T10:36:11;3.53;;;1.52;;
52126;SDS011;38120;53.176;6.614;2023-08-06T10:38:48;5.90;;;1.92;;
52126;SDS011;38120;53.176;6.614;2023-08-06T10:41:16;2.63;;;1.50;;
52126;SDS011;38120;53.176;6.614;2023-08-06T10:43:49;4.20;;;1.85;;
52126;SDS011;38120;53.176;6.614;2023-08-06T10:46:34;3.60;;;1.63;;
52126;SDS011;38120;53.176;6.614;2023-08-06T10:49:02;4.22;;;1.67;;
52126;SDS011;38120;53.176;6.614;2023-08-06T10:51:28;3.55;;;2.00;;
52126;SDS011;38120;53.176;6.614;2023-08-06T10:53:54;3.45;;;1.95;;
52126;SDS011;38120;53.176;6.614;2023-08-06T10:56:21;5.55;;;1.92;;
52126;SDS011;38120;53.176;6.614;2023-08-06T10:58:48;5.40;;;1.63;;
52126;SDS011;38120;53.176;6.614;2023-08-06T11:01:16;4.22;;;1.65;;
52126;SDS011;38120;53.176;6.614;2023-08-06T11:03:42;2.55;;;1.50;;
52126;SDS011;38120;53.176;6.614;2023-08-06T11:06:09;3.50;;;1.88;;
52126;SDS011;38120;53.176;6.614;2023-08-06T11:08:36;4.60;;;1.60;;
52126;SDS011;38120;53.176;6.614;2023-08-06T11:11:09;3.55;;;1.60;;
52126;SDS011;38120;53.176;6.614;2023-08-06T11:13:40;3.65;;;1.45;;
52126;SDS011;38120;53.176;6.614;2023-08-06T11:16:06;3.20;;;1.50;;
52126;SDS011;38120;53.176;6.614;2023-08-06T11:18:32;3.35;;;1.63;;
52126;SDS011;38120;53.176;6.614;2023-08-06T11:23:26;5.45;;;1.90;;
52126;SDS011;38120;53.176;6.614;2023-08-06T11:25:53;7.07;;;1.67;;
52126;SDS011;38120;53.176;6.614;2023-08-06T11:30:48;6.18;;;1.50;;
52126;SDS011;38120;53.176;6.614;2023-08-06T11:33:19;2.92;;;1.60;;
52126;SDS011;38120;53.176;6.614;2023-08-06T11:35:50;4.85;;;1.98;;
52126;SDS011;38120;53.176;6.614;2023-08-06T11:38:16;3.72;;;1.63;;
52126;SDS011;38120;53.176;6.614;2023-08-06T11:40:50;3.80;;;1.58;;
52126;SDS011;38120;53.176;6.614;2023-08-06T11:43:16;4.30;;;1.60;;
52126;SDS011;38120;53.176;6.614;2023-08-06T11:45:47;3.70;;;1.55;;
52126;SDS011;38120;53.176;6.614;2023-08-06T11:48:14;3.33;;;1.90;;
52126;SDS011;38120;53.176;6.614;2023-08-06T11:50:40;3.85;;;1.50;;
52126;SDS011;38120;53.176;6.614;2023-08-06T11:53:06;3.90;;;1.67;;
52126;SDS011;38120;53.176;6.614;2023-08-06T11:55:32;4.22;;;1.38;;
52126;SDS011;38120;53.176;6.614;2023-08-06T11:57:59;4.50;;;2.10;;
52126;SDS011;38120;53.176;6.614;2023-08-06T12:00:29;4.60;;;1.67;;
52126;SDS011;38120;53.176;6.614;2023-08-06T12:02:54;3.63;;;1.80;;
52126;SDS011;38120;53.176;6.614;2023-08-06T12:05:22;2.92;;;1.70;;
52126;SDS011;38120;53.176;6.614;2023-08-06T12:07:56;3.75;;;1.95;;
52126;SDS011;38120;53.176;6.614;2023-08-06T12:10:30;3.33;;;1.65;;
52126;SDS011;38120;53.176;6.614;2023-08-06T12:12:57;4.20;;;2.13;;
52126;SDS011;38120;53.176;6.614;2023-08-06T12:15:23;3.55;;;1.88;;
52126;SDS011;38120;53.176;6.614;2023-08-06T12:17:49;4.53;;;1.65;;
52126;SDS011;38120;53.176;6.614;2023-08-06T12:22:41;4.28;;;1.75;;
52126;SDS011;38120;53.176;6.614;2023-08-06T12:25:08;3.45;;;1.55;;
52126;SDS011;38120;53.176;6.614;2023-08-06T12:27:43;4.18;;;1.40;;
52126;SDS011;38120;53.176;6.614;2023-08-06T12:30:10;4.93;;;1.75;;
52126;SDS011;38120;53.176;6.614;2023-08-06T12:32:37;3.83;;;1.20;;
52126;SDS011;38120;53.176;6.614;2023-08-06T12:37:30;3.28;;;1.60;;
52126;SDS011;38120;53.176;6.614;2023-08-06T12:39:55;4.15;;;1.95;;
52126;SDS011;38120;53.176;6.614;2023-08-06T12:42:21;5.43;;;1.92;;
52126;SDS011;38120;53.176;6.614;2023-08-06T12:44:50;3.75;;;1.73;;
52126;SDS011;38120;53.176;6.614;2023-08-06T12:47:16;3.70;;;1.50;;
52126;SDS011;38120;53.176;6.614;2023-08-06T12:49:42;3.17;;;1.83;;
52126;SDS011;38120;53.176;6.614;2023-08-06T12:52:08;3.25;;;1.30;;
52126;SDS011;38120;53.176;6.614;2023-08-06T12:57:03;4.43;;;1.50;;
52126;SDS011;38120;53.176;6.614;2023-08-06T12:59:29;3.63;;;1.67;;
52126;SDS011;38120;53.176;6.614;2023-08-06T13:01:55;3.92;;;1.50;;
52126;SDS011;38120;53.176;6.614;2023-08-06T13:04:21;3.47;;;1.63;;
52126;SDS011;38120;53.176;6.614;2023-08-06T13:06:47;6.85;;;1.80;;
52126;SDS011;38120;53.176;6.614;2023-08-06T13:09:13;3.60;;;1.60;;
52126;SDS011;38120;53.176;6.614;2023-08-06T13:14:06;5.53;;;2.08;;
52126;SDS011;38120;53.176;6.614;2023-08-06T13:16:33;4.10;;;1.90;;
52126;SDS011;38120;53.176;6.614;2023-08-06T13:19:00;3.17;;;1.50;;
52126;SDS011;38120;53.176;6.614;2023-08-06T13:24:07;2.60;;;1.60;;
52126;SDS011;38120;53.176;6.614;2023-08-06T13:26:33;3.00;;;1.20;;
52126;SDS011;38120;53.176;6.614;2023-08-06T13:28:59;5.10;;;1.58;;
52126;SDS011;38120;53.176;6.614;2023-08-06T13:31:26;2.38;;;1.38;;
52126;SDS011;38120;53.176;6.614;2023-08-06T13:33:52;4.82;;;1.27;;
52126;SDS011;38120;53.176;6.614;2023-08-06T13:36:23;3.75;;;1.60;;
52126;SDS011;38120;53.176;6.614;2023-08-06T13:38:49;4.35;;;1.70;;
52126;SDS011;38120;53.176;6.614;2023-08-06T13:41:15;4.03;;;1.50;;
52126;SDS011;38120;53.176;6.614;2023-08-06T13:46:07;3.35;;;1.67;;
52126;SDS011;38120;53.176;6.614;2023-08-06T13:48:34;4.10;;;1.38;;
52126;SDS011;38120;53.176;6.614;2023-08-06T13:50:59;5.13;;;1.55;;
52126;SDS011;38120;53.176;6.614;2023-08-06T13:53:25;5.93;;;1.55;;
52126;SDS011;38120;53.176;6.614;2023-08-06T13:55:55;2.35;;;1.10;;
52126;SDS011;38120;53.176;6.614;2023-08-06T13:58:22;3.17;;;1.27;;
52126;SDS011;38120;53.176;6.614;2023-08-06T14:00:48;2.95;;;1.13;;
52126;SDS011;38120;53.176;6.614;2023-08-06T14:03:14;2.53;;;1.30;;
52126;SDS011;38120;53.176;6.614;2023-08-06T14:05:39;2.35;;;1.50;;
52126;SDS011;38120;53.176;6.614;2023-08-06T14:08:05;1.85;;;1.05;;
52126;SDS011;38120;53.176;6.614;2023-08-06T14:10:30;2.90;;;1.23;;
52126;SDS011;38120;53.176;6.614;2023-08-06T14:12:56;2.20;;;1.25;;
52126;SDS011;38120;53.176;6.614;2023-08-06T14:15:22;2.83;;;1.40;;
52126;SDS011;38120;53.176;6.614;2023-08-06T14:17:47;3.60;;;1.60;;
52126;SDS011;38120;53.176;6.614;2023-08-06T14:20:14;7.97;;;1.55;;
52126;SDS011;38120;53.176;6.614;2023-08-06T14:22:40;3.72;;;1.70;;
52126;SDS011;38120;53.176;6.614;2023-08-06T14:25:06;3.72;;;1.60;;
52126;SDS011;38120;53.176;6.614;2023-08-06T14:27:32;3.65;;;1.80;;
52126;SDS011;38120;53.176;6.614;2023-08-06T14:29:57;3.25;;;1.33;;
52126;SDS011;38120;53.176;6.614;2023-08-06T14:32:23;3.30;;;1.55;;
52126;SDS011;38120;53.176;6.614;2023-08-06T14:34:49;2.63;;;1.15;;
52126;SDS011;38120;53.176;6.614;2023-08-06T14:37:15;4.15;;;1.55;;
52126;SDS011;38120;53.176;6.614;2023-08-06T14:39:40;3.95;;;1.58;;
52126;SDS011;38120;53.176;6.614;2023-08-06T14:42:06;3.97;;;1.50;;
52126;SDS011;38120;53.176;6.614;2023-08-06T14:44:32;1.83;;;1.02;;
52126;SDS011;38120;53.176;6.614;2023-08-06T14:46:57;3.80;;;1.52;;
52126;SDS011;38120;53.176;6.614;2023-08-06T14:49:23;3.88;;;1.48;;
52126;SDS011;38120;53.176;6.614;2023-08-06T14:51:49;3.20;;;1.38;;
52126;SDS011;38120;53.176;6.614;2023-08-06T14:54:15;3.22;;;1.20;;
52126;SDS011;38120;53.176;6.614;2023-08-06T14:56:41;2.40;;;1.38;;
52126;SDS011;38120;53.176;6.614;2023-08-06T14:59:06;1.65;;;1.10;;
52126;SDS011;38120;53.176;6.614;2023-08-06T15:01:32;4.18;;;1.35;;
52126;SDS011;38120;53.176;6.614;2023-08-06T15:03:58;2.10;;;1.27;;
52126;SDS011;38120;53.176;6.614;2023-08-06T15:06:24;2.50;;;1.33;;
52126;SDS011;38120;53.176;6.614;2023-08-06T15:08:49;2.03;;;1.10;;
52126;SDS011;38120;53.176;6.614;2023-08-06T15:11:15;3.05;;;1.20;;
52126;SDS011;38120;53.176;6.614;2023-08-06T15:13:41;3.08;;;1.38;;
52126;SDS011;38120;53.176;6.614;2023-08-06T15:16:07;3.03;;;1.50;;
52126;SDS011;38120;53.176;6.614;2023-08-06T15:18:33;2.72;;;1.10;;
52126;SDS011;38120;53.176;6.614;2023-08-06T15:20:58;3.47;;;1.55;;
52126;SDS011;38120;53.176;6.614;2023-08-06T15:23:24;3.67;;;1.25;;